Aeroporto :
LOGIN :

Iscrizione | Disclaimer

   EN    FR    IT 

 










Sommario :    VFR   VFR Marginale   IFR   IFR Intensivo   IFR Molto Intensivo
Visibilità : 
Base nubi : 
>= 8 km
>= 3000ft
5 / 8 km
1000 / 3000 ft
1500m / 5 km
500 / 1000 ft
800 / 1500m
200 / 500 ft
< 800m
< 200 ft
Simboli :   Temporali  Nebbia  Neve Forte  Precipitazioni Forti  Vento > 20 kt
SIGMETs :   Varie  Temporali  Ghiacco  Turbolenza  Onda orograficha  Ceneri Vulcaniche






- Altitudine del aeroporto : 610 ft
- Codice IATA : VXO


ESMX - Växjö Kronoberg

ULTIMO METAR :
  • 251820Z AUTO 08002KT 9999 BKN082/// 14/10 Q1030

METARs OBSOLETI :
  • 251750Z AUTO 06003KT 030V100 9999 OVC066/// 14/09 Q1030
  • 251720Z AUTO 15004KT 100V190 9999 FEW084/// 14/10 Q1030
  • 251650Z AUTO 16003KT 100V190 9999 NCD 14/11 Q1029
  • 251620Z AUTO 04007KT 9999 FEW048/// BKN066/// 13/11 Q1029 RERA
  • 251550Z AUTO 32012KT 280V350 9999 -RA SCT044/// OVC062/// 13/11 Q1029

Previsioni scadute.



MetMap, La meteo Aeronautica in un colpo d'occhio ! - Copyright ORBIFLY Dicembre 2007 - Disclaimer

ORBIFLY MET'MAP TEAM :

Programmazione e sviluppo : Alexandra Zaïnal
Concezione : Baudouin d'Aumeries
Aiuto per la programmazione : Marc-Olivier Méhu
Supporto tecnico e logistico : Manuel Goepfert
Aiuto per la traduzione : Arnaldo La Scala

Contatto : metmap@orbifly.com




FONTI E CREDITI :

   NOAA